Sugar Camp, Wisconsin
Current Conditions -  °F | °C
As of 7:07 AM on Saturday 20 Dec 2014 (Local Time) from KRHI Reporting Station
Haze Haze  
Wind Chill: 22°   Ceiling: 700
Heat Index: 22°   Visibility: 4mi
Dew Point: 21°   Wind: 0mph
Humidity: 96%   Direction: NA
Pressure: 30.18"   Gusts: NA
Location:  45.6521°N, 89.3386°W
Report Text: KRHI 201307Z AUTO 00000KT 4SM BR BKN007 OVC012 M06/M06 A3018 RMK AO2 CIG 006V010 T10561061
Loading
Personal Weather Stations






























Interactive Weather Map New forecast layout! Learn more

10-Day Weather Forecast

Advertisements
Track Severe Weather on mobile